createdAt,value
2018-06-25T00:00:47.937Z,85.98
2018-06-25T00:03:16.985Z,88.03
2018-06-25T00:05:49.391Z,88.45
2018-06-25T00:08:18.421Z,88.18
2018-06-25T00:10:49.255Z,88.09
2018-06-25T00:13:19.255Z,87.55
2018-06-25T00:18:30.554Z,84.00
2018-06-25T00:20:59.635Z,86.61
2018-06-25T00:23:28.723Z,85.74
2018-06-25T00:25:57.770Z,87.71
2018-06-25T00:28:26.838Z,86.27
2018-06-25T00:30:57.890Z,84.91
2018-06-25T00:36:02.749Z,89.04
2018-06-25T00:38:32.762Z,87.80
2018-06-25T00:43:37.766Z,89.91
2018-06-25T00:46:06.816Z,90.41
2018-06-25T00:48:38.010Z,91.09
2018-06-25T00:51:07.318Z,90.96
2018-06-25T00:53:36.371Z,94.59
2018-06-25T00:56:06.424Z,91.09
2018-06-25T00:58:35.528Z,91.67
2018-06-25T01:01:04.588Z,94.47
2018-06-25T01:03:33.736Z,96.78
2018-06-25T01:06:02.857Z,94.18
2018-06-25T01:08:31.851Z,94.63
2018-06-25T01:11:00.934Z,95.72
2018-06-25T01:13:29.997Z,95.76
2018-06-25T01:16:02.473Z,96.67
2018-06-25T01:18:31.585Z,97.31
2018-06-25T01:21:00.670Z,98.09
2018-06-25T01:23:29.726Z,97.93
2018-06-25T01:25:58.785Z,97.62
2018-06-25T01:28:27.850Z,98.74
2018-06-25T01:30:56.905Z,94.92
2018-06-25T01:33:25.981Z,94.27
2018-06-25T01:35:55.973Z,95.68
2018-06-25T01:38:25.036Z,94.66
2018-06-25T01:40:54.105Z,94.67
2018-06-25T01:43:24.142Z,92.83
2018-06-25T01:48:28.979Z,93.65
2018-06-25T01:50:58.050Z,98.11
2018-06-25T01:53:27.093Z,99.28
2018-06-25T01:55:58.090Z,99.44
2018-06-25T01:58:27.177Z,96.96
2018-06-25T02:03:32.808Z,94.73
2018-06-25T02:06:01.861Z,96.95
2018-06-25T02:08:30.940Z,96.57
2018-06-25T02:14:10.544Z,95.17
2018-06-25T02:16:39.602Z,98.38
2018-06-25T02:19:09.545Z,99.06
2018-06-25T02:21:38.614Z,100.00
2018-06-25T02:24:07.847Z,100.00
2018-06-25T02:26:36.894Z,100.00
2018-06-25T02:29:05.953Z,100.00
2018-06-25T02:31:36.275Z,100.00
2018-06-25T02:34:07.233Z,100.00
2018-06-25T02:36:36.300Z,100.00
2018-06-25T02:39:09.099Z,98.47
2018-06-25T02:41:38.210Z,100.00
2018-06-25T02:44:08.203Z,100.00
2018-06-25T02:46:37.268Z,100.00
2018-06-25T02:49:06.333Z,100.00
2018-06-25T02:51:35.398Z,100.00
2018-06-25T02:56:40.290Z,100.00
2018-06-25T02:59:16.530Z,100.00
2018-06-25T03:01:45.571Z,100.00
2018-06-25T03:04:14.647Z,100.00
2018-06-25T03:06:43.726Z,100.00
2018-06-25T03:09:13.681Z,100.00
2018-06-25T03:11:42.749Z,100.00
2018-06-25T03:14:12.991Z,100.00
2018-06-25T03:16:42.064Z,100.00
2018-06-25T03:19:12.402Z,100.00
2018-06-25T03:21:41.476Z,100.00
2018-06-25T03:26:46.277Z,100.00
2018-06-25T03:29:15.492Z,100.00
2018-06-25T03:31:44.566Z,100.00
2018-06-25T03:34:13.978Z,100.00
2018-06-25T03:36:43.057Z,100.00
2018-06-25T03:39:12.421Z,100.00
2018-06-25T03:41:41.578Z,100.00
2018-06-25T03:46:46.453Z,100.00
2018-06-25T03:49:15.525Z,100.00
2018-06-25T03:51:44.653Z,100.00
2018-06-25T03:54:13.803Z,100.00
2018-06-25T03:56:42.853Z,100.00
2018-06-25T03:59:13.358Z,100.00
2018-06-25T04:01:42.511Z,99.04
2018-06-25T04:04:13.061Z,100.00
2018-06-25T04:06:42.135Z,100.00
2018-06-25T04:09:12.832Z,100.00
2018-06-25T04:11:41.879Z,100.00
2018-06-25T04:14:16.097Z,100.00
2018-06-25T04:16:45.241Z,100.00
2018-06-25T04:21:50.291Z,100.00
2018-06-25T04:24:20.290Z,100.00
2018-06-25T04:29:25.060Z,100.00
2018-06-25T04:31:54.117Z,100.00
2018-06-25T04:34:23.180Z,100.00
2018-06-25T04:36:52.297Z,100.00
2018-06-25T04:39:22.195Z,100.00
2018-06-25T04:41:51.463Z,100.00
2018-06-25T04:44:20.560Z,100.00
2018-06-25T04:49:25.333Z,100.00
2018-06-25T04:51:54.409Z,100.00
2018-06-25T04:54:24.465Z,100.00
2018-06-25T04:56:53.569Z,100.00
2018-06-25T04:59:23.747Z,100.00
2018-06-25T05:01:52.836Z,100.00
2018-06-25T05:04:21.945Z,99.39
2018-06-25T05:06:51.020Z,99.71
2018-06-25T05:09:20.111Z,98.53
2018-06-25T05:11:51.087Z,98.59
2018-06-25T05:14:21.098Z,97.89
2018-06-25T05:16:51.053Z,97.97
2018-06-25T05:21:56.842Z,95.91
2018-06-25T05:27:01.711Z,94.99
2018-06-25T05:29:31.670Z,94.85
2018-06-25T05:32:00.739Z,93.89
2018-06-25T05:34:30.052Z,93.32
2018-06-25T05:36:59.095Z,91.98
2018-06-25T05:39:28.158Z,92.66
2018-06-25T05:41:57.374Z,93.38
2018-06-25T05:44:26.440Z,91.87
2018-06-25T05:46:55.536Z,90.29
2018-06-25T05:49:24.674Z,89.46
2018-06-25T05:51:53.734Z,91.17
2018-06-25T05:54:25.019Z,91.17
2018-06-25T05:57:02.618Z,89.02
2018-06-25T05:59:39.281Z,87.37
2018-06-25T06:02:15.781Z,89.85
2018-06-25T06:04:48.429Z,89.34
2018-06-25T06:07:26.526Z,92.75
2018-06-25T06:09:55.754Z,91.26
2018-06-25T06:12:24.830Z,91.42
2018-06-25T06:14:53.919Z,91.08
2018-06-25T06:17:23.091Z,91.33
2018-06-25T06:19:52.205Z,88.97
2018-06-25T06:22:21.322Z,89.20
2018-06-25T06:24:50.417Z,88.74
2018-06-25T06:27:19.565Z,88.88
2018-06-25T06:29:50.713Z,88.92
2018-06-25T06:32:19.768Z,89.66
2018-06-25T06:34:48.844Z,88.91
2018-06-25T06:37:17.953Z,88.63
2018-06-25T06:39:48.050Z,87.19
2018-06-25T06:42:17.094Z,87.16
2018-06-25T06:44:48.151Z,86.57
2018-06-25T06:47:17.209Z,84.47
2018-06-25T06:49:49.749Z,83.80
2018-06-25T06:52:18.957Z,81.37
2018-06-25T06:54:53.355Z,81.25
2018-06-25T06:57:23.606Z,81.55
2018-06-25T06:59:52.647Z,78.07
2018-06-25T07:02:21.717Z,80.64
2018-06-25T07:04:51.702Z,79.19
2018-06-25T07:07:21.443Z,79.00
2018-06-25T07:09:50.696Z,78.93
2018-06-25T07:12:19.780Z,77.76
2018-06-25T07:14:48.849Z,76.79
2018-06-25T07:17:18.029Z,75.85
2018-06-25T07:19:47.185Z,75.53
2018-06-25T07:22:16.214Z,76.35
2018-06-25T07:24:49.914Z,73.62
2018-06-25T07:27:18.996Z,76.61
2018-06-25T07:29:48.153Z,76.65
2018-06-25T07:32:17.370Z,73.87
2018-06-25T07:37:22.214Z,68.05
2018-06-25T07:39:51.265Z,72.78
2018-06-25T07:44:56.038Z,71.79
2018-06-25T07:47:26.570Z,71.03
2018-06-25T07:49:55.727Z,69.77
2018-06-25T07:52:27.813Z,65.42
2018-06-25T07:54:56.879Z,67.57
2018-06-25T07:57:26.921Z,69.28
2018-06-25T07:59:55.994Z,67.74
2018-06-25T08:02:34.169Z,69.04
2018-06-25T08:05:03.220Z,68.41
2018-06-25T08:07:32.269Z,70.28
2018-06-25T08:10:01.391Z,70.82
2018-06-25T08:12:30.423Z,71.74
2018-06-25T08:14:59.464Z,70.38
2018-06-25T08:17:30.423Z,69.40
2018-06-25T08:19:59.464Z,68.27
2018-06-25T08:22:36.918Z,66.15
2018-06-25T08:25:05.977Z,65.11
2018-06-25T08:27:42.601Z,64.91
2018-06-25T08:30:11.676Z,64.75
2018-06-25T08:32:41.669Z,65.98
2018-06-25T08:35:18.213Z,66.58
2018-06-25T08:37:47.370Z,67.59
2018-06-25T08:40:17.367Z,70.04
2018-06-25T08:42:49.117Z,70.10
2018-06-25T08:45:21.201Z,68.67
2018-06-25T08:47:50.255Z,73.14
2018-06-25T08:50:37.060Z,69.82
2018-06-25T08:53:27.355Z,68.17
2018-06-25T08:55:56.389Z,65.82
2018-06-25T09:01:01.243Z,64.25
2018-06-25T09:06:06.102Z,61.50
2018-06-25T09:11:10.935Z,59.33
2018-06-25T09:16:15.745Z,55.12
2018-06-25T09:18:44.806Z,55.20
2018-06-25T09:21:13.982Z,57.30
2018-06-25T09:23:43.183Z,58.49
2018-06-25T09:26:12.209Z,57.04
2018-06-25T09:28:42.186Z,59.03
2018-06-25T09:31:18.866Z,56.74
2018-06-25T09:33:47.904Z,52.33
2018-06-25T09:36:16.974Z,55.36
2018-06-25T09:41:22.882Z,54.47
2018-06-25T09:43:51.888Z,53.42
2018-06-25T09:48:56.953Z,53.42
2018-06-25T09:51:26.008Z,52.66
2018-06-25T09:53:55.054Z,55.96
2018-06-25T09:56:37.481Z,53.58
2018-06-25T09:59:08.727Z,54.75
2018-06-25T10:01:45.407Z,55.07
2018-06-25T10:04:25.261Z,52.81
2018-06-25T10:06:54.356Z,53.91
2018-06-25T10:09:31.741Z,54.65
2018-06-25T10:12:04.634Z,55.25
2018-06-25T10:14:33.713Z,55.11
2018-06-25T10:17:03.738Z,57.43
2018-06-25T10:19:33.883Z,57.19
2018-06-25T10:22:10.172Z,57.75
2018-06-25T10:24:42.981Z,57.35
2018-06-25T10:27:12.038Z,58.01
2018-06-25T10:29:48.898Z,57.53
2018-06-25T10:32:17.971Z,57.97
2018-06-25T10:35:04.160Z,59.01
2018-06-25T10:37:33.215Z,56.89
2018-06-25T10:40:06.180Z,55.46
2018-06-25T10:43:00.947Z,54.16
2018-06-25T10:45:34.959Z,52.81
2018-06-25T10:48:05.022Z,52.38
2018-06-25T10:53:09.989Z,50.68
2018-06-25T10:55:39.110Z,50.81
2018-06-25T10:58:08.192Z,46.67
2018-06-25T11:00:38.250Z,49.88
2018-06-25T11:05:47.439Z,43.84
2018-06-25T11:08:16.469Z,45.04
2018-06-25T11:10:45.538Z,44.29
2018-06-25T11:13:14.942Z,47.16
2018-06-25T11:15:47.581Z,45.08
2018-06-25T11:18:17.603Z,46.58
2018-06-25T11:20:48.677Z,42.64
2018-06-25T11:23:17.809Z,39.79
2018-06-25T11:25:46.853Z,39.90
2018-06-25T11:28:15.899Z,35.80
2018-06-25T11:30:48.434Z,34.72
2018-06-25T11:33:17.591Z,34.97
2018-06-25T11:35:50.244Z,36.13
2018-06-25T11:38:19.472Z,35.81
2018-06-25T11:41:05.682Z,42.92
2018-06-25T11:43:34.858Z,46.17
2018-06-25T11:46:09.362Z,45.65
2018-06-25T11:48:46.433Z,44.64
2018-06-25T11:51:15.507Z,43.52
2018-06-25T11:53:44.577Z,39.38
2018-06-25T11:56:13.789Z,35.19
2018-06-25T11:58:46.616Z,34.02
2018-06-25T12:01:15.675Z,32.41
2018-06-25T12:03:52.496Z,31.85
2018-06-25T12:06:21.567Z,31.87
2018-06-25T12:11:26.542Z,39.42
2018-06-25T12:14:17.017Z,41.32
2018-06-25T12:16:45.994Z,45.12
2018-06-25T12:19:32.585Z,42.50
2018-06-25T12:22:01.729Z,39.75
2018-06-25T12:24:37.827Z,43.91
2018-06-25T12:27:15.031Z,44.45
2018-06-25T12:29:44.155Z,45.36
2018-06-25T12:34:48.961Z,43.41
2018-06-25T12:37:22.685Z,45.03
2018-06-25T12:39:51.786Z,45.15
2018-06-25T12:42:21.847Z,43.93
2018-06-25T12:44:50.906Z,43.45
2018-06-25T12:47:28.204Z,43.51
2018-06-25T12:50:06.515Z,44.64
2018-06-25T12:52:35.630Z,45.40
2018-06-25T12:55:05.876Z,44.16
2018-06-25T12:57:34.913Z,44.99
2018-06-25T13:00:05.908Z,44.71
2018-06-25T13:02:34.950Z,43.20
2018-06-25T13:05:04.114Z,42.39
2018-06-25T13:10:08.983Z,39.49
2018-06-25T13:12:38.155Z,38.09
2018-06-25T13:15:33.922Z,36.89
2018-06-25T13:18:06.051Z,38.08
2018-06-25T13:20:35.272Z,37.03
2018-06-25T13:25:40.701Z,30.27
2018-06-25T13:32:57.797Z,30.66
2018-06-25T13:35:26.973Z,31.43
2018-06-25T13:38:03.842Z,36.79
2018-06-25T13:43:35.385Z,38.98
2018-06-25T13:46:12.831Z,39.72
2018-06-25T13:48:41.882Z,38.92
2018-06-25T13:51:21.534Z,36.62
2018-06-25T13:53:54.538Z,34.12
2018-06-25T14:01:43.367Z,30.24
2018-06-25T14:04:17.417Z,26.83
2018-06-25T14:06:50.390Z,26.10
2018-06-25T14:09:23.046Z,31.09
2018-06-25T14:11:57.164Z,34.68
2018-06-25T14:14:34.106Z,35.68
2018-06-25T14:17:10.364Z,37.83
2018-06-25T14:19:39.431Z,35.91
2018-06-25T14:22:35.929Z,35.55
2018-06-25T14:25:05.003Z,38.67
2018-06-25T14:27:34.982Z,38.93
2018-06-25T14:30:11.789Z,39.78
2018-06-25T14:32:40.838Z,40.91
2018-06-25T14:35:10.014Z,42.62
2018-06-25T14:37:39.074Z,41.92
2018-06-25T14:42:44.090Z,40.81
2018-06-25T14:45:13.146Z,44.04
2018-06-25T14:47:42.186Z,41.85
2018-06-25T14:52:51.051Z,42.17
2018-06-25T14:55:20.152Z,45.17
2018-06-25T14:57:49.154Z,42.98
2018-06-25T15:00:18.346Z,41.11
2018-06-25T15:02:47.442Z,40.17
2018-06-25T15:05:23.653Z,37.66
2018-06-25T15:07:54.682Z,38.04
2018-06-25T15:10:23.746Z,39.02
2018-06-25T15:15:32.207Z,35.05
2018-06-25T15:18:01.516Z,35.40
2018-06-25T15:25:47.220Z,33.36
2018-06-25T15:28:20.950Z,30.93
2018-06-25T15:30:51.012Z,26.10
2018-06-25T15:35:56.745Z,25.84
2018-06-25T15:38:45.154Z,30.57
2018-06-25T15:41:14.207Z,30.11
2018-06-25T15:43:43.268Z,32.17
2018-06-25T15:46:12.324Z,32.84
2018-06-25T15:51:17.314Z,34.35
2018-06-25T15:53:48.585Z,37.35
2018-06-25T15:58:53.417Z,39.63
2018-06-25T16:01:24.507Z,39.21
2018-06-25T16:03:56.697Z,36.91
2018-06-25T16:09:03.769Z,27.87
2018-06-25T16:11:37.739Z,25.00
2018-06-25T16:14:06.816Z,26.68
2018-06-25T16:19:11.606Z,32.24
2018-06-25T16:21:40.656Z,34.34
2018-06-25T16:24:09.855Z,36.40
2018-06-25T16:26:38.919Z,30.86
2018-06-25T16:29:07.965Z,29.35
2018-06-25T16:31:37.045Z,32.61
2018-06-25T16:34:06.280Z,35.79
2018-06-25T16:36:35.288Z,36.33
2018-06-25T16:39:04.789Z,39.40
2018-06-25T16:44:09.664Z,38.73
2018-06-25T16:46:38.701Z,40.34
2018-06-25T16:49:07.878Z,40.94
2018-06-25T16:51:51.882Z,40.94
2018-06-25T16:54:21.920Z,41.99
2018-06-25T16:59:31.208Z,41.91
2018-06-25T17:02:01.241Z,42.11
2018-06-25T17:04:33.763Z,43.72
2018-06-25T17:07:04.226Z,46.06
2018-06-25T17:09:33.281Z,44.11
2018-06-25T17:12:03.365Z,44.76
2018-06-25T17:14:32.414Z,45.90
2018-06-25T17:17:01.949Z,45.09
2018-06-25T17:19:31.046Z,46.63
2018-06-25T17:22:01.197Z,49.99
2018-06-25T17:24:30.235Z,48.27
2018-06-25T17:27:00.518Z,48.73
2018-06-25T17:29:29.581Z,51.08
2018-06-25T17:31:59.736Z,49.82
2018-06-25T17:34:28.872Z,52.45
2018-06-25T17:36:59.618Z,54.01
2018-06-25T17:39:32.509Z,51.68
2018-06-25T17:42:05.321Z,51.67
2018-06-25T17:44:34.381Z,51.33
2018-06-25T17:52:29.063Z,52.95
2018-06-25T17:54:58.512Z,53.68
2018-06-25T17:57:27.749Z,54.48
2018-06-25T17:59:58.742Z,53.17
2018-06-25T18:02:27.858Z,52.19
2018-06-25T18:07:32.659Z,54.56
2018-06-25T18:10:02.846Z,52.69
2018-06-25T18:12:31.978Z,56.15
2018-06-25T18:15:02.297Z,55.06
2018-06-25T18:17:31.441Z,63.24
2018-06-25T18:20:04.359Z,65.13
2018-06-25T18:22:33.420Z,61.23
2018-06-25T18:25:03.068Z,64.25
2018-06-25T18:27:32.116Z,67.57
2018-06-25T18:30:02.633Z,70.65
2018-06-25T18:32:32.611Z,66.95
2018-06-25T18:35:01.670Z,68.33
2018-06-25T18:37:30.780Z,67.87
2018-06-25T18:39:59.959Z,69.73
2018-06-25T18:42:29.028Z,70.59
2018-06-25T18:44:58.085Z,68.19
2018-06-25T18:47:27.126Z,69.09
2018-06-25T18:49:57.314Z,73.72
2018-06-25T18:52:26.442Z,73.09
2018-06-25T18:54:55.486Z,72.14
2018-06-25T18:57:24.537Z,69.03
2018-06-25T18:59:53.589Z,70.20
2018-06-25T19:02:22.696Z,73.01
2018-06-25T19:04:51.738Z,71.23
2018-06-25T19:07:20.793Z,68.95
2018-06-25T19:09:49.864Z,75.24
2018-06-25T19:12:18.926Z,72.06
2018-06-25T19:14:47.983Z,72.28
2018-06-25T19:17:17.967Z,71.56
2018-06-25T19:19:48.013Z,72.22
2018-06-25T19:24:55.865Z,73.52
2018-06-25T19:27:24.927Z,72.41
2018-06-25T19:29:54.917Z,71.56
2018-06-25T19:32:23.960Z,74.58
2018-06-25T19:35:04.150Z,74.74
2018-06-25T19:37:33.240Z,73.20
2018-06-25T19:40:02.285Z,77.69
2018-06-25T19:42:31.360Z,78.42
2018-06-25T19:45:09.992Z,78.90
2018-06-25T19:47:40.003Z,80.72
2018-06-25T19:55:20.526Z,78.01
2018-06-25T19:57:50.504Z,78.48
2018-06-25T20:00:19.581Z,80.31
2018-06-25T20:02:48.676Z,81.65
2018-06-25T20:05:19.094Z,79.51
2018-06-25T20:07:48.256Z,78.63
2018-06-25T20:10:17.297Z,81.13
2018-06-25T20:12:46.765Z,80.51
2018-06-25T20:15:16.945Z,83.01
2018-06-25T20:20:21.964Z,78.35
2018-06-25T20:22:53.281Z,79.33
2018-06-25T20:25:22.624Z,78.88
2018-06-25T20:27:51.744Z,80.82
2018-06-25T20:30:22.100Z,81.12
2018-06-25T20:32:51.529Z,79.07
2018-06-25T20:35:20.699Z,82.22
2018-06-25T20:37:49.988Z,80.83
2018-06-25T20:40:20.370Z,80.69
2018-06-25T20:45:25.641Z,80.66
2018-06-25T20:47:54.703Z,76.87
2018-06-25T20:50:23.874Z,81.52
2018-06-25T20:52:53.047Z,83.75
2018-06-25T20:55:23.340Z,84.22
2018-06-25T20:57:52.380Z,83.44
2018-06-25T21:02:57.248Z,83.08
2018-06-25T21:05:26.497Z,84.33
2018-06-25T21:07:55.559Z,83.93
2018-06-25T21:10:24.620Z,82.74
2018-06-25T21:12:53.680Z,84.37
2018-06-25T21:15:22.757Z,84.29
2018-06-25T21:17:51.817Z,83.45
2018-06-25T21:20:20.874Z,80.37
2018-06-25T21:22:49.953Z,82.23
2018-06-25T21:25:20.954Z,82.53
2018-06-25T21:27:49.989Z,83.51
2018-06-25T21:32:54.901Z,80.82
2018-06-25T21:35:25.005Z,81.91
2018-06-25T21:37:54.274Z,83.77
2018-06-25T21:40:24.510Z,83.65
2018-06-25T21:42:53.802Z,84.18
2018-06-25T21:45:22.934Z,82.11
2018-06-25T21:47:52.106Z,84.19
2018-06-25T21:50:24.886Z,82.04
2018-06-25T21:52:54.069Z,85.23
2018-06-25T21:55:24.193Z,84.94
2018-06-25T21:57:53.893Z,85.35
2018-06-25T22:00:25.213Z,84.40
2018-06-25T22:02:54.386Z,84.32
2018-06-25T22:05:23.651Z,84.10
2018-06-25T22:10:28.507Z,84.07
2018-06-25T22:15:33.253Z,84.33
2018-06-25T22:18:03.201Z,83.35
2018-06-25T22:20:33.244Z,82.62
2018-06-25T22:23:20.443Z,81.10
2018-06-25T22:25:50.416Z,81.69
2018-06-25T22:28:19.481Z,81.86
2018-06-25T22:30:48.539Z,81.88
2018-06-25T22:33:17.590Z,80.71
2018-06-25T22:35:46.695Z,81.68
2018-06-25T22:38:15.783Z,82.80
2018-06-25T22:40:45.818Z,84.63
2018-06-25T22:43:14.927Z,82.71
2018-06-25T22:45:44.898Z,81.87
2018-06-25T22:48:13.954Z,82.36
2018-06-25T22:50:48.103Z,85.18
2018-06-25T22:53:17.287Z,85.84
2018-06-25T22:55:54.773Z,86.20
2018-06-25T22:58:23.924Z,87.99
2018-06-25T23:00:52.970Z,88.24
2018-06-25T23:03:22.021Z,88.96
2018-06-25T23:05:51.075Z,90.60
2018-06-25T23:08:20.129Z,90.47
2018-06-25T23:10:49.181Z,90.31
2018-06-25T23:13:18.241Z,92.03
2018-06-25T23:15:48.250Z,91.31
2018-06-25T23:18:17.311Z,92.99
2018-06-25T23:23:22.647Z,92.21
2018-06-25T23:25:51.725Z,91.73
2018-06-25T23:28:20.843Z,92.77
2018-06-25T23:30:49.841Z,92.65
2018-06-25T23:33:18.894Z,90.18
2018-06-25T23:35:48.952Z,91.64
2018-06-25T23:38:18.040Z,92.10
2018-06-25T23:40:47.090Z,92.87
2018-06-25T23:45:51.914Z,93.65
2018-06-25T23:48:20.973Z,95.38
2018-06-25T23:50:51.076Z,94.93
2018-06-25T23:53:20.064Z,95.77
2018-06-25T23:55:49.655Z,96.06
2018-06-25T23:58:19.646Z,91.15
